createdAt,value
2022-10-15T00:00:40.431Z,4.00
2022-10-15T00:03:07.409Z,3.93
2022-10-15T00:05:38.359Z,3.60
2022-10-15T00:08:06.181Z,3.43
2022-10-15T00:10:33.704Z,3.43
2022-10-15T00:13:00.664Z,3.30
2022-10-15T00:15:28.062Z,3.27
2022-10-15T00:17:54.810Z,3.50
2022-10-15T00:20:21.950Z,3.40
2022-10-15T00:22:48.790Z,3.00
2022-10-15T00:25:15.600Z,3.37
2022-10-15T00:27:42.418Z,3.20
2022-10-15T00:30:09.851Z,3.13
2022-10-15T00:32:36.678Z,3.17
2022-10-15T00:35:03.718Z,2.70
2022-10-15T00:37:30.512Z,3.00
2022-10-15T00:39:57.246Z,2.70
2022-10-15T00:42:24.424Z,2.40
2022-10-15T00:44:57.231Z,2.57
2022-10-15T00:47:37.573Z,2.50
2022-10-15T00:50:10.556Z,3.07
2022-10-15T00:52:53.587Z,2.80
2022-10-15T00:55:30.322Z,2.40
2022-10-15T00:58:00.548Z,2.50
2022-10-15T01:00:27.445Z,1.90
2022-10-15T01:02:54.306Z,2.30
2022-10-15T01:05:21.967Z,2.03
2022-10-15T01:07:48.767Z,2.20
2022-10-15T01:10:16.858Z,1.83
2022-10-15T01:12:55.673Z,2.03
2022-10-15T01:15:46.375Z,2.00
2022-10-15T01:18:20.829Z,2.27
2022-10-15T01:20:56.687Z,2.10
2022-10-15T01:23:32.379Z,2.83
2022-10-15T01:26:14.419Z,2.13
2022-10-15T01:29:14.446Z,2.33
2022-10-15T01:31:57.345Z,2.10
2022-10-15T01:34:35.282Z,1.90
2022-10-15T01:37:16.833Z,1.93
2022-10-15T01:39:53.507Z,2.10
2022-10-15T01:42:34.473Z,2.77
2022-10-15T01:45:07.242Z,3.20
2022-10-15T01:47:56.136Z,3.03
2022-10-15T01:50:25.917Z,1.97
2022-10-15T01:52:55.352Z,2.03
2022-10-15T01:55:27.348Z,1.43
2022-10-15T01:57:56.952Z,1.90
2022-10-15T02:00:24.076Z,1.90
2022-10-15T02:02:50.821Z,1.60
2022-10-15T02:05:25.979Z,1.53
2022-10-15T02:08:04.150Z,1.50
2022-10-15T02:10:42.910Z,1.80
2022-10-15T02:13:51.946Z,1.53
2022-10-15T02:16:28.117Z,1.63
2022-10-15T02:19:05.963Z,1.50
2022-10-15T02:21:47.309Z,1.20
2022-10-15T02:24:32.094Z,1.13
2022-10-15T02:27:01.102Z,1.57
2022-10-15T02:29:33.244Z,1.50
2022-10-15T02:32:01.526Z,1.50
2022-10-15T02:34:31.144Z,1.50
2022-10-15T02:37:01.241Z,1.10
2022-10-15T02:39:28.288Z,1.53
2022-10-15T02:41:56.630Z,1.20
2022-10-15T02:44:23.510Z,0.90
2022-10-15T02:46:50.350Z,1.00
2022-10-15T02:49:17.212Z,1.17
2022-10-15T02:51:44.133Z,1.10
2022-10-15T02:54:10.930Z,0.93
2022-10-15T02:56:39.422Z,1.30
2022-10-15T02:59:06.640Z,1.03
2022-10-15T03:01:34.267Z,0.80
2022-10-15T03:04:01.863Z,1.20
2022-10-15T03:06:28.665Z,1.13
2022-10-15T03:08:55.609Z,1.30
2022-10-15T03:11:22.359Z,1.03
2022-10-15T03:13:49.049Z,1.60
2022-10-15T03:16:15.843Z,0.80
2022-10-15T03:18:42.582Z,0.80
2022-10-15T03:21:09.611Z,0.97
2022-10-15T03:23:36.373Z,0.90
2022-10-15T03:26:03.326Z,0.90
2022-10-15T03:28:30.438Z,1.00
2022-10-15T03:30:57.242Z,0.93
2022-10-15T03:33:25.249Z,0.87
2022-10-15T03:35:52.846Z,0.90
2022-10-15T03:38:19.959Z,0.70
2022-10-15T03:40:47.000Z,0.80
2022-10-15T03:43:13.928Z,0.87
2022-10-15T03:45:40.944Z,0.87
2022-10-15T03:48:07.793Z,0.83
2022-10-15T03:50:34.778Z,1.00
2022-10-15T03:53:06.068Z,1.00
2022-10-15T03:55:32.945Z,1.10
2022-10-15T03:57:59.860Z,1.40
2022-10-15T04:00:27.044Z,0.80
2022-10-15T04:02:53.899Z,0.90
2022-10-15T04:05:20.939Z,0.90
2022-10-15T04:07:47.835Z,0.80
2022-10-15T04:10:14.571Z,0.90
2022-10-15T04:12:41.342Z,1.10
2022-10-15T04:15:08.579Z,1.13
2022-10-15T04:17:35.465Z,0.70
2022-10-15T04:20:02.308Z,1.40
2022-10-15T04:22:29.125Z,0.70
2022-10-15T04:24:55.932Z,0.90
2022-10-15T04:27:22.891Z,0.70
2022-10-15T04:29:49.949Z,0.90
2022-10-15T04:32:17.620Z,0.90
2022-10-15T04:34:46.424Z,0.90
2022-10-15T04:37:14.098Z,1.10
2022-10-15T04:39:41.097Z,0.93
2022-10-15T04:42:07.912Z,0.70
2022-10-15T04:44:34.690Z,1.00
2022-10-15T04:47:02.363Z,0.93
2022-10-15T04:49:29.201Z,0.97
2022-10-15T04:51:56.380Z,1.00
2022-10-15T04:54:23.270Z,0.73
2022-10-15T04:56:50.055Z,0.90
2022-10-15T04:59:16.756Z,0.93
2022-10-15T05:01:43.701Z,0.90
2022-10-15T05:04:12.291Z,1.00
2022-10-15T05:06:39.285Z,0.70
2022-10-15T05:09:06.042Z,0.90
2022-10-15T05:11:37.038Z,0.90
2022-10-15T05:14:03.964Z,0.80
2022-10-15T05:16:31.204Z,0.77
2022-10-15T05:19:04.545Z,0.80
2022-10-15T05:21:32.467Z,0.70
2022-10-15T05:23:59.794Z,0.80
2022-10-15T05:26:28.275Z,0.90
2022-10-15T05:28:57.827Z,0.80
2022-10-15T05:31:26.448Z,0.93
2022-10-15T05:33:54.132Z,1.03
2022-10-15T05:36:28.468Z,0.80
2022-10-15T05:39:00.480Z,0.90
2022-10-15T05:41:28.145Z,1.00
2022-10-15T05:43:56.884Z,0.90
2022-10-15T05:46:24.023Z,0.93
2022-10-15T05:48:56.524Z,1.20
2022-10-15T05:51:24.789Z,0.90
2022-10-15T05:53:55.906Z,1.00
2022-10-15T05:56:23.483Z,0.90
2022-10-15T05:58:50.665Z,0.83
2022-10-15T06:01:17.804Z,0.70
2022-10-15T06:03:44.930Z,1.00
2022-10-15T06:06:26.519Z,0.83
2022-10-15T06:08:54.942Z,0.90
2022-10-15T06:11:22.209Z,0.83
2022-10-15T06:13:48.919Z,1.37
2022-10-15T06:16:20.845Z,1.07
2022-10-15T06:18:52.519Z,1.03
2022-10-15T06:21:19.336Z,1.00
2022-10-15T06:23:46.041Z,0.83
2022-10-15T06:26:12.998Z,1.17
2022-10-15T06:28:40.318Z,1.03
2022-10-15T06:31:08.075Z,1.00
2022-10-15T06:33:35.666Z,1.10
2022-10-15T06:36:10.620Z,1.00
2022-10-15T06:38:37.739Z,0.93
2022-10-15T06:41:05.633Z,1.00
2022-10-15T06:43:34.804Z,1.10
2022-10-15T06:46:04.372Z,0.80
2022-10-15T06:48:32.732Z,1.17
2022-10-15T06:51:00.940Z,1.00
2022-10-15T06:53:28.784Z,1.17
2022-10-15T06:56:02.770Z,0.93
2022-10-15T06:58:31.425Z,1.13
2022-10-15T07:01:03.592Z,1.10
2022-10-15T07:03:30.800Z,1.10
2022-10-15T07:06:03.615Z,1.10
2022-10-15T07:08:30.939Z,0.90
2022-10-15T07:10:58.027Z,1.10
2022-10-15T07:13:24.959Z,1.20
2022-10-15T07:15:54.223Z,1.17
2022-10-15T07:18:21.312Z,1.00
2022-10-15T07:20:48.460Z,1.43
2022-10-15T07:23:15.871Z,1.30
2022-10-15T07:25:42.644Z,1.30
2022-10-15T07:28:09.759Z,1.20
2022-10-15T07:30:36.693Z,1.00
2022-10-15T07:33:03.622Z,0.97
2022-10-15T07:35:30.458Z,0.90
2022-10-15T07:38:01.872Z,1.30
2022-10-15T07:40:28.934Z,0.93
2022-10-15T07:42:57.035Z,0.90
2022-10-15T07:45:24.915Z,1.27
2022-10-15T07:47:59.676Z,0.90
2022-10-15T07:50:29.247Z,1.30
2022-10-15T07:52:59.199Z,1.10
2022-10-15T07:55:26.092Z,1.00
2022-10-15T07:57:58.068Z,1.37
2022-10-15T08:00:25.305Z,1.37
2022-10-15T08:02:52.137Z,1.30
2022-10-15T08:05:18.910Z,1.10
2022-10-15T08:07:45.648Z,1.13
2022-10-15T08:10:13.511Z,1.00
2022-10-15T08:12:40.554Z,1.33
2022-10-15T08:15:08.790Z,1.17
2022-10-15T08:17:35.736Z,1.20
2022-10-15T08:20:02.743Z,1.17
2022-10-15T08:22:29.499Z,1.37
2022-10-15T08:24:56.320Z,1.10
2022-10-15T08:27:23.293Z,1.40
2022-10-15T08:29:50.040Z,1.30
2022-10-15T08:32:16.726Z,1.17
2022-10-15T08:34:43.546Z,1.00
2022-10-15T08:37:10.421Z,1.03
2022-10-15T08:39:37.231Z,0.90
2022-10-15T08:42:08.052Z,1.00
2022-10-15T08:44:50.065Z,0.90
2022-10-15T08:47:28.856Z,1.00
2022-10-15T08:49:58.580Z,0.80
2022-10-15T08:52:40.265Z,1.00
2022-10-15T08:55:08.964Z,1.20
2022-10-15T08:57:39.435Z,1.10
2022-10-15T09:00:13.082Z,1.00
2022-10-15T09:03:11.125Z,0.87
2022-10-15T09:05:55.769Z,0.90
2022-10-15T09:08:31.353Z,0.90
2022-10-15T09:11:25.942Z,0.90
2022-10-15T09:13:52.972Z,1.00
2022-10-15T09:16:33.963Z,0.90
2022-10-15T09:19:05.082Z,0.80
2022-10-15T09:21:35.327Z,1.13
2022-10-15T09:24:03.133Z,0.90
2022-10-15T09:26:33.395Z,0.90
2022-10-15T09:29:32.641Z,0.80
2022-10-15T09:32:27.556Z,1.73
2022-10-15T09:35:12.322Z,1.00
2022-10-15T09:38:01.108Z,0.90
2022-10-15T09:40:50.729Z,1.07
2022-10-15T09:43:28.288Z,1.00
2022-10-15T09:45:55.202Z,0.70
2022-10-15T09:48:23.729Z,0.90
2022-10-15T09:50:58.288Z,0.80
2022-10-15T09:53:47.859Z,0.90
2022-10-15T09:56:26.522Z,1.10
2022-10-15T09:58:58.223Z,1.27
2022-10-15T10:01:27.975Z,1.23
2022-10-15T10:04:20.400Z,1.00
2022-10-15T10:06:57.913Z,1.10
2022-10-15T10:09:38.252Z,1.00
2022-10-15T10:12:08.402Z,0.90
2022-10-15T10:15:04.405Z,1.03
2022-10-15T10:17:31.720Z,1.00
2022-10-15T10:20:10.889Z,0.90
2022-10-15T10:22:47.678Z,1.20
2022-10-15T10:25:29.626Z,1.07
2022-10-15T10:28:03.364Z,1.20
2022-10-15T10:30:35.043Z,1.00
2022-10-15T10:33:03.265Z,0.90
2022-10-15T10:35:43.529Z,1.10
2022-10-15T10:38:35.122Z,0.90
2022-10-15T10:41:10.963Z,0.90
2022-10-15T10:43:40.027Z,0.90
2022-10-15T10:46:15.716Z,0.83
2022-10-15T10:48:45.341Z,0.90
2022-10-15T10:51:19.254Z,1.00
2022-10-15T10:54:06.488Z,1.17
2022-10-15T10:56:42.517Z,1.00
2022-10-15T10:59:35.741Z,1.23
2022-10-15T11:02:04.658Z,0.90
2022-10-15T11:04:34.833Z,1.13
2022-10-15T11:07:05.660Z,1.10
2022-10-15T11:09:52.357Z,0.90
2022-10-15T11:12:25.660Z,1.20
2022-10-15T11:15:21.486Z,1.40
2022-10-15T11:17:53.990Z,1.07
2022-10-15T11:20:47.505Z,1.27
2022-10-15T11:23:39.963Z,1.23
2022-10-15T11:26:52.115Z,1.27
2022-10-15T11:30:00.028Z,1.63
2022-10-15T11:32:54.683Z,1.23
2022-10-15T11:35:53.387Z,1.17
2022-10-15T11:38:43.738Z,1.20
2022-10-15T11:41:34.356Z,1.10
2022-10-15T11:44:22.647Z,1.23
2022-10-15T11:47:06.002Z,1.10
2022-10-15T11:50:05.287Z,1.10
2022-10-15T11:53:01.390Z,1.20
2022-10-15T11:55:37.184Z,1.10
2022-10-15T11:58:28.741Z,1.07
2022-10-15T12:01:06.848Z,1.20
2022-10-15T12:03:43.703Z,1.47
2022-10-15T12:06:16.309Z,1.20
2022-10-15T12:08:44.894Z,0.80
2022-10-15T12:11:28.320Z,0.87
2022-10-15T12:14:05.672Z,0.90
2022-10-15T12:19:48.010Z,0.90
2022-10-15T12:22:50.263Z,0.80
2022-10-15T12:25:35.110Z,0.90
2022-10-15T12:28:17.102Z,1.07
2022-10-15T12:30:58.694Z,1.33
2022-10-15T12:33:54.641Z,0.93
2022-10-15T12:36:30.437Z,0.70
2022-10-15T12:39:34.338Z,1.10
2022-10-15T12:42:33.307Z,0.97
2022-10-15T12:45:03.354Z,1.30
2022-10-15T12:47:51.174Z,0.90
2022-10-15T12:50:21.264Z,1.37
2022-10-15T12:53:05.644Z,1.60
2022-10-15T12:55:37.741Z,1.33
2022-10-15T12:58:06.349Z,1.27
2022-10-15T13:00:41.716Z,1.40
2022-10-15T13:03:14.254Z,1.10
2022-10-15T13:05:41.324Z,1.17
2022-10-15T13:08:16.581Z,1.27
2022-10-15T13:10:51.980Z,1.07
2022-10-15T13:13:23.772Z,0.90
2022-10-15T13:16:01.749Z,1.10
2022-10-15T13:18:31.416Z,1.10
2022-10-15T13:20:59.519Z,1.10
2022-10-15T13:23:32.039Z,1.57
2022-10-15T13:26:30.272Z,1.63
2022-10-15T13:28:58.194Z,1.30
2022-10-15T13:31:37.195Z,1.10
2022-10-15T13:34:32.038Z,1.20
2022-10-15T13:37:01.384Z,1.60
2022-10-15T13:39:39.545Z,1.03
2022-10-15T13:42:08.290Z,1.47
2022-10-15T13:44:35.944Z,1.10
2022-10-15T13:47:03.464Z,1.00
2022-10-15T13:49:30.372Z,1.20
2022-10-15T13:51:57.463Z,1.20
2022-10-15T13:54:29.598Z,1.30
2022-10-15T13:56:59.793Z,1.10
2022-10-15T13:59:29.778Z,1.50
2022-10-15T14:02:02.270Z,1.20
2022-10-15T14:04:31.616Z,1.10
2022-10-15T14:07:02.809Z,1.87
2022-10-15T14:09:35.726Z,1.20
2022-10-15T14:12:06.376Z,1.50
2022-10-15T14:14:34.990Z,1.30
2022-10-15T14:17:06.675Z,1.23
2022-10-15T14:19:36.876Z,1.00
2022-10-15T14:22:04.673Z,1.63
2022-10-15T14:24:34.711Z,1.23
2022-10-15T14:27:05.010Z,1.30
2022-10-15T14:29:41.675Z,1.13
2022-10-15T14:32:46.966Z,1.00
2022-10-15T14:35:32.806Z,1.67
2022-10-15T14:38:00.782Z,1.80
2022-10-15T14:40:28.151Z,2.50
2022-10-15T14:43:03.649Z,2.13
2022-10-15T14:45:35.790Z,1.87
2022-10-15T14:48:20.177Z,2.57
2022-10-15T14:50:47.529Z,2.50
2022-10-15T14:53:19.957Z,2.63
2022-10-15T14:56:13.725Z,1.90
2022-10-15T14:58:40.555Z,1.80
2022-10-15T15:01:08.562Z,1.93
2022-10-15T15:03:43.873Z,1.73
2022-10-15T15:06:10.662Z,1.77
2022-10-15T15:08:37.471Z,2.00
2022-10-15T15:11:07.542Z,1.87
2022-10-15T15:13:41.045Z,1.77
2022-10-15T15:16:12.116Z,1.47
2022-10-15T15:18:39.132Z,1.50
2022-10-15T15:21:07.875Z,1.90
2022-10-15T15:23:35.466Z,1.67
2022-10-15T15:26:02.909Z,1.80
2022-10-15T15:28:29.772Z,1.90
2022-10-15T15:31:02.584Z,1.70
2022-10-15T15:33:29.567Z,2.00
2022-10-15T15:36:10.556Z,1.97
2022-10-15T15:38:37.340Z,2.20
2022-10-15T15:41:12.770Z,2.30
2022-10-15T15:43:40.155Z,2.70
2022-10-15T15:46:07.626Z,2.40
2022-10-15T15:48:34.563Z,2.90
2022-10-15T15:51:07.379Z,2.90
2022-10-15T15:53:35.341Z,2.23
2022-10-15T15:56:02.134Z,2.50
2022-10-15T15:58:28.939Z,2.73
2022-10-15T16:00:55.776Z,3.00
2022-10-15T16:03:22.619Z,2.93
2022-10-15T16:08:22.932Z,3.63
2022-10-15T16:10:49.691Z,3.70
2022-10-15T16:13:16.464Z,4.20
2022-10-15T16:15:43.381Z,4.00
2022-10-15T16:18:10.801Z,3.43
2022-10-15T16:20:39.642Z,4.13
2022-10-15T16:23:06.506Z,4.50
2022-10-15T16:25:33.325Z,5.33
2022-10-15T16:28:01.930Z,6.77
2022-10-15T16:30:29.267Z,9.07
2022-10-15T16:32:56.223Z,9.37
2022-10-15T16:35:23.296Z,8.70
2022-10-15T16:37:52.698Z,8.23
2022-10-15T16:40:19.572Z,8.60
2022-10-15T16:42:46.699Z,6.53
2022-10-15T16:45:13.794Z,5.23
2022-10-15T16:47:40.571Z,6.63
2022-10-15T16:50:08.146Z,10.87
2022-10-15T16:52:35.261Z,9.83
2022-10-15T16:55:02.044Z,14.57
2022-10-15T16:57:29.003Z,8.23
2022-10-15T16:59:55.813Z,4.47
2022-10-15T17:02:22.788Z,4.20
2022-10-15T17:04:49.824Z,4.23
2022-10-15T17:07:17.399Z,4.37
2022-10-15T17:09:45.096Z,3.93
2022-10-15T17:12:12.087Z,3.93
2022-10-15T17:14:38.839Z,5.10
2022-10-15T17:17:07.689Z,5.83
2022-10-15T17:19:35.133Z,7.87
2022-10-15T17:22:02.023Z,6.27
2022-10-15T17:24:28.949Z,5.60
2022-10-15T17:26:57.952Z,4.30
2022-10-15T17:29:27.870Z,4.07
2022-10-15T17:31:57.962Z,4.07
2022-10-15T17:34:26.048Z,4.70
2022-10-15T17:36:53.984Z,4.53
2022-10-15T17:39:22.485Z,6.90
2022-10-15T17:41:51.241Z,5.77
2022-10-15T17:44:18.438Z,6.47
2022-10-15T17:46:45.437Z,6.77
2022-10-15T17:49:15.124Z,6.17
2022-10-15T17:51:42.176Z,5.60
2022-10-15T17:54:09.045Z,5.60
2022-10-15T17:56:38.403Z,5.27
2022-10-15T17:59:07.996Z,4.87
2022-10-15T18:04:24.805Z,3.73
2022-10-15T18:06:51.630Z,3.63
2022-10-15T18:09:18.410Z,3.53
2022-10-15T18:11:46.602Z,3.73
2022-10-15T18:14:13.644Z,3.33
2022-10-15T18:16:40.445Z,3.80
2022-10-15T18:19:07.191Z,3.20
2022-10-15T18:21:34.003Z,3.77
2022-10-15T18:24:01.019Z,3.50
2022-10-15T18:26:28.051Z,3.63
2022-10-15T18:28:54.993Z,3.70
2022-10-15T18:31:25.155Z,3.20
2022-10-15T18:33:54.826Z,3.60
2022-10-15T18:36:29.943Z,3.63
2022-10-15T18:38:57.431Z,4.00
2022-10-15T18:41:30.266Z,4.03
2022-10-15T18:43:59.683Z,3.70
2022-10-15T18:46:27.920Z,4.53
2022-10-15T18:48:55.023Z,4.17
2022-10-15T18:51:23.008Z,4.53
2022-10-15T18:53:49.870Z,5.37
2022-10-15T18:56:17.112Z,6.60
2022-10-15T18:58:44.011Z,7.07
2022-10-15T19:01:34.151Z,6.53
2022-10-15T19:04:04.326Z,7.97
2022-10-15T19:06:35.616Z,7.60
2022-10-15T19:09:04.861Z,7.40
2022-10-15T19:11:32.283Z,7.63
2022-10-15T19:14:00.709Z,8.13
2022-10-15T19:16:29.554Z,6.57
2022-10-15T19:18:56.595Z,5.53
2022-10-15T19:21:23.398Z,5.30
2022-10-15T19:23:50.350Z,5.80
2022-10-15T19:26:17.573Z,6.50
2022-10-15T19:28:44.890Z,5.43
2022-10-15T19:31:18.392Z,5.93
2022-10-15T19:33:45.260Z,5.03
2022-10-15T19:36:18.429Z,5.10
2022-10-15T19:38:45.200Z,5.57
2022-10-15T19:41:12.017Z,4.50
2022-10-15T19:43:38.802Z,5.27
2022-10-15T19:46:05.909Z,5.47
2022-10-15T19:48:32.676Z,5.07
2022-10-15T19:51:01.973Z,5.23
2022-10-15T19:53:29.412Z,4.80
2022-10-15T19:55:58.694Z,4.13
2022-10-15T19:58:25.764Z,4.77
2022-10-15T20:00:53.767Z,4.80
2022-10-15T20:03:25.831Z,6.47
2022-10-15T20:05:53.218Z,5.73
2022-10-15T20:08:20.155Z,5.63
2022-10-15T20:10:51.259Z,4.90
2022-10-15T20:13:19.927Z,5.43
2022-10-15T20:15:48.563Z,5.40
2022-10-15T20:18:16.361Z,7.17
2022-10-15T20:20:45.506Z,6.73
2022-10-15T20:23:14.671Z,6.70
2022-10-15T20:25:42.956Z,6.70
2022-10-15T20:28:11.236Z,7.03
2022-10-15T20:30:39.251Z,5.50
2022-10-15T20:33:07.528Z,5.17
2022-10-15T20:35:35.654Z,5.27
2022-10-15T20:38:02.697Z,6.57
2022-10-15T20:40:30.176Z,5.67
2022-10-15T20:42:57.295Z,5.23
2022-10-15T20:45:29.480Z,5.40
2022-10-15T20:47:58.111Z,5.53
2022-10-15T20:50:30.069Z,5.00
2022-10-15T20:52:57.836Z,5.30
2022-10-15T20:55:24.926Z,5.07
2022-10-15T20:57:51.859Z,5.33
2022-10-15T21:00:18.892Z,5.23
2022-10-15T21:02:45.620Z,5.80
2022-10-15T21:05:12.768Z,5.70
2022-10-15T21:07:39.608Z,6.13
2022-10-15T21:10:06.742Z,5.17
2022-10-15T21:12:33.469Z,5.77
2022-10-15T21:15:00.274Z,6.00
2022-10-15T21:17:27.630Z,5.70
2022-10-15T21:19:54.641Z,4.93
2022-10-15T21:22:21.618Z,4.70
2022-10-15T21:24:48.448Z,5.30
2022-10-15T21:27:15.248Z,5.47
2022-10-15T21:29:42.972Z,4.50
2022-10-15T21:32:10.171Z,4.93
2022-10-15T21:34:37.132Z,6.53
2022-10-15T21:37:03.954Z,7.10
2022-10-15T21:39:30.871Z,7.63
2022-10-15T21:41:57.847Z,6.27
2022-10-15T21:44:24.629Z,5.60
2022-10-15T21:46:51.407Z,5.73
2022-10-15T21:49:18.205Z,5.83
2022-10-15T21:51:45.205Z,5.57
2022-10-15T21:54:12.049Z,5.53
2022-10-15T21:56:38.914Z,6.40
2022-10-15T21:59:05.954Z,7.43
2022-10-15T22:01:35.520Z,7.70
2022-10-15T22:04:04.877Z,6.00
2022-10-15T22:06:32.336Z,6.30
2022-10-15T22:08:59.497Z,5.57
2022-10-15T22:11:31.329Z,5.40
2022-10-15T22:14:00.759Z,4.90
2022-10-15T22:16:28.794Z,4.47
2022-10-15T22:18:56.540Z,4.60
2022-10-15T22:21:26.185Z,4.43
2022-10-15T22:23:58.743Z,5.23
2022-10-15T22:26:27.860Z,4.93
2022-10-15T22:28:57.745Z,4.40
2022-10-15T22:31:25.085Z,4.23
2022-10-15T22:33:52.552Z,3.80
2022-10-15T22:36:25.167Z,5.13
2022-10-15T22:39:01.774Z,4.50
2022-10-15T22:41:31.274Z,4.40
2022-10-15T22:43:58.441Z,4.40
2022-10-15T22:46:26.237Z,4.37
2022-10-15T22:48:53.687Z,4.13
2022-10-15T22:51:21.254Z,4.77
2022-10-15T22:53:48.448Z,4.73
2022-10-15T22:56:19.070Z,4.83
2022-10-15T22:58:46.028Z,5.10
2022-10-15T23:01:17.876Z,5.67
2022-10-15T23:03:46.984Z,5.67
2022-10-15T23:06:14.568Z,5.63
2022-10-15T23:08:41.889Z,5.47
2022-10-15T23:11:14.899Z,6.00
2022-10-15T23:13:43.151Z,5.73
2022-10-15T23:16:28.089Z,6.17
2022-10-15T23:18:57.287Z,6.43
2022-10-15T23:22:03.452Z,5.90
2022-10-15T23:24:30.232Z,5.17
2022-10-15T23:26:56.975Z,5.57
2022-10-15T23:29:25.503Z,5.10
2022-10-15T23:31:53.182Z,5.27
2022-10-15T23:34:24.888Z,4.90
2022-10-15T23:36:52.694Z,4.33
2022-10-15T23:39:22.324Z,4.67
2022-10-15T23:41:49.881Z,4.17
2022-10-15T23:44:16.987Z,4.17
2022-10-15T23:46:44.059Z,4.50
2022-10-15T23:49:11.157Z,4.37
2022-10-15T23:51:38.368Z,4.53
2022-10-15T23:54:13.744Z,5.00
2022-10-15T23:56:40.502Z,5.13
2022-10-15T23:59:08.164Z,4.60
